首页
METAR-TAF:

METAR-TAF

机场 :

内塔吉·苏巴斯·钱德拉·鲍斯国际机场

加尔各答, 印度

纬度: 22-39N, 经度: 088-27E, 海拔: 4米

当前天气观测

该预报发布于8分钟前的10:00 UTC
风速5节,风向西北
温度 30°C
湿度 55%
气压 1011 hPa
能見度: 4500

METAR: VECC 151000Z 32005KT 4500 HZ NSC 30/20 Q1011 NOSIG

时间: 15:38 (10:08 UTC)

预报

该预报发布于2小时和8分钟前的08:00 UTC
预报有效从15日的 09点(UTC)到 15日的 18点(UTC)
风速5节,风向
能見度: 4000
少量云层高于2000英尺
成为
从 15日的 16点(UTC)到 15日的 18点(UTC)
风速节,风向
能見度: 2800

TAF: VECC 150800Z 1509/1518 35005KT 4000 HZ FEW020 BECMG 1516/1518 00000KT 2800 HZ NSC

超过4000个机场的气象观测和天气预报(METAR&TAF报告)。

可查询的气象台以黄色和红色小点在地图上表示。

将鼠标移到小点上方,可查看气象台名称。

然后点击查看天气观测和预报。

如需切换地图:点击带黑十字的绿色按钮放大地图;点击带横线的绿色按钮缩小地图;或者点击绿色箭头查看邻近地区的地图。


METAR-TAF: